Terminal Aerodrome Forecast
Issued by NWS Wilmington, OH

Current Version | Previous Version | Text Only | Print | Product List | Glossary Off
Versions: 1 2 3 4 5 6 7 8 9 10 11 12 13 14 15 16 17 18

000
FTUS41 KILN 280500
TAFILN
TAF
KILN 280531Z 2806/2906 00000KT P6SM OVC250
      TEMPO 2809/2811 5SM BR
     FM281400 05004KT P6SM FEW050 BKN250
     FM290000 VRB03KT P6SM SCT250=

USA.gov is the U.S. government's official web portal to all federal, state and local government web resources and services.